sensor_id;sensor_type;location;lat;lon;timestamp;pressure;altitude;pressure_sealevel;temperature;humidity
24302;BME280;12421;49.732;20.078;2022-09-24T00:03:14;97007.02;;;5.79;78.60
24302;BME280;12421;49.732;20.078;2022-09-24T00:13:17;96997.80;;;5.74;78.29
24302;BME280;12421;49.732;20.078;2022-09-24T00:23:19;96997.41;;;5.78;78.29
24302;BME280;12421;49.732;20.078;2022-09-24T00:33:21;96986.59;;;5.83;78.14
24302;BME280;12421;49.732;20.078;2022-09-24T00:53:36;96971.02;;;5.93;77.72
24302;BME280;12421;49.732;20.078;2022-09-24T01:03:39;96969.33;;;6.00;77.91
24302;BME280;12421;49.732;20.078;2022-09-24T01:14:04;96966.36;;;6.12;78.23
24302;BME280;12421;49.732;20.078;2022-09-24T01:34:50;96941.21;;;5.75;76.99
24302;BME280;12421;49.732;20.078;2022-09-24T01:44:55;96951.22;;;5.71;77.66
24302;BME280;12421;49.732;20.078;2022-09-24T01:55:00;96948.50;;;5.61;77.53
24302;BME280;12421;49.732;20.078;2022-09-24T02:05:11;96953.59;;;5.48;78.16
24302;BME280;12421;49.732;20.078;2022-09-24T02:15:31;96949.48;;;5.76;78.83
24302;BME280;12421;49.732;20.078;2022-09-24T02:25:41;96943.81;;;5.72;77.54
24302;BME280;12421;49.732;20.078;2022-09-24T02:35:54;96947.50;;;5.44;77.78
24302;BME280;12421;49.732;20.078;2022-09-24T02:45:56;96933.30;;;5.17;78.37
24302;BME280;12421;49.732;20.078;2022-09-24T02:55:58;96929.77;;;5.12;78.54
24302;BME280;12421;49.732;20.078;2022-09-24T03:06:01;96919.83;;;5.20;78.98
24302;BME280;12421;49.732;20.078;2022-09-24T03:16:04;96909.88;;;5.24;78.50
24302;BME280;12421;49.732;20.078;2022-09-24T03:26:08;96905.16;;;5.31;78.55
24302;BME280;12421;49.732;20.078;2022-09-24T03:36:16;96903.88;;;5.33;78.59
24302;BME280;12421;49.732;20.078;2022-09-24T03:46:26;96908.64;;;5.33;78.25
24302;BME280;12421;49.732;20.078;2022-09-24T03:56:29;96900.61;;;5.12;77.47
24302;BME280;12421;49.732;20.078;2022-09-24T04:06:31;96910.38;;;4.87;77.69
24302;BME280;12421;49.732;20.078;2022-09-24T04:16:35;96899.14;;;4.56;77.75
24302;BME280;12421;49.732;20.078;2022-09-24T04:26:37;96904.48;;;4.65;78.79
24302;BME280;12421;49.732;20.078;2022-09-24T04:36:40;96893.21;;;4.69;78.68
24302;BME280;12421;49.732;20.078;2022-09-24T04:46:42;96898.95;;;4.76;78.27
24302;BME280;12421;49.732;20.078;2022-09-24T04:56:44;96898.50;;;4.77;77.97
24302;BME280;12421;49.732;20.078;2022-09-24T05:06:46;96901.25;;;4.89;78.46
24302;BME280;12421;49.732;20.078;2022-09-24T05:16:48;96887.92;;;5.04;77.93
24302;BME280;12421;49.732;20.078;2022-09-24T05:26:50;96891.82;;;5.03;77.74
24302;BME280;12421;49.732;20.078;2022-09-24T05:37:13;96872.22;;;5.00;76.92
24302;BME280;12421;49.732;20.078;2022-09-24T05:47:16;96879.70;;;5.09;77.60
24302;BME280;12421;49.732;20.078;2022-09-24T05:57:18;96872.51;;;5.28;77.33
24302;BME280;12421;49.732;20.078;2022-09-24T06:07:21;96881.99;;;5.72;77.98
24302;BME280;12421;49.732;20.078;2022-09-24T06:17:24;96891.00;;;6.18;77.51
24302;BME280;12421;49.732;20.078;2022-09-24T06:27:27;96886.01;;;6.64;77.80
24302;BME280;12421;49.732;20.078;2022-09-24T06:37:30;96877.88;;;7.55;76.56
24302;BME280;12421;49.732;20.078;2022-09-24T06:47:32;96876.91;;;8.25;76.57
24302;BME280;12421;49.732;20.078;2022-09-24T06:57:34;96887.55;;;8.99;75.97
24302;BME280;12421;49.732;20.078;2022-09-24T07:07:36;96877.47;;;9.65;74.88
24302;BME280;12421;49.732;20.078;2022-09-24T07:17:39;96884.36;;;10.29;74.41
24302;BME280;12421;49.732;20.078;2022-09-24T07:27:42;96881.72;;;10.68;72.54
24302;BME280;12421;49.732;20.078;2022-09-24T07:37:45;96889.61;;;11.03;71.93
24302;BME280;12421;49.732;20.078;2022-09-24T07:47:47;96886.07;;;11.36;72.17
24302;BME280;12421;49.732;20.078;2022-09-24T07:57:51;96895.53;;;12.05;71.96
24302;BME280;12421;49.732;20.078;2022-09-24T08:07:55;96901.28;;;12.53;70.05
24302;BME280;12421;49.732;20.078;2022-09-24T08:18:01;96899.78;;;13.06;69.61
24302;BME280;12421;49.732;20.078;2022-09-24T08:28:05;96899.52;;;13.37;68.92
24302;BME280;12421;49.732;20.078;2022-09-24T08:38:09;96897.80;;;14.10;68.01
24302;BME280;12421;49.732;20.078;2022-09-24T08:48:14;96892.84;;;14.49;65.98
24302;BME280;12421;49.732;20.078;2022-09-24T08:58:30;96878.69;;;14.80;66.29
24302;BME280;12421;49.732;20.078;2022-09-24T09:18:48;96879.45;;;15.73;63.10
24302;BME280;12421;49.732;20.078;2022-09-24T09:28:55;96864.53;;;15.96;62.77
24302;BME280;12421;49.732;20.078;2022-09-24T09:39:14;96854.02;;;15.93;62.21
24302;BME280;12421;49.732;20.078;2022-09-24T09:49:16;96860.38;;;15.88;63.80
24302;BME280;12421;49.732;20.078;2022-09-24T09:59:20;96845.22;;;16.17;63.46
24302;BME280;12421;49.732;20.078;2022-09-24T10:09:23;96837.73;;;16.54;61.55
24302;BME280;12421;49.732;20.078;2022-09-24T10:19:27;96821.75;;;16.68;58.86
24302;BME280;12421;49.732;20.078;2022-09-24T10:29:32;96824.59;;;16.98;57.50
24302;BME280;12421;49.732;20.078;2022-09-24T10:40:01;96803.41;;;17.41;56.97
24302;BME280;12421;49.732;20.078;2022-09-24T11:00:39;96792.55;;;18.10;57.27
24302;BME280;12421;49.732;20.078;2022-09-24T11:11:19;96789.48;;;18.19;54.58
24302;BME280;12421;49.732;20.078;2022-09-24T11:52:53;96751.40;;;19.23;48.78
24302;BME280;12421;49.732;20.078;2022-09-24T12:03:05;96745.01;;;18.98;50.90
24302;BME280;12421;49.732;20.078;2022-09-24T12:13:23;96735.98;;;19.29;52.90
24302;BME280;12421;49.732;20.078;2022-09-24T12:23:41;96741.83;;;19.27;50.24
24302;BME280;12421;49.732;20.078;2022-09-24T12:33:52;96738.27;;;19.28;50.95
24302;BME280;12421;49.732;20.078;2022-09-24T13:04:32;96738.20;;;19.30;54.14
24302;BME280;12421;49.732;20.078;2022-09-24T13:14:34;96719.70;;;19.25;53.33
24302;BME280;12421;49.732;20.078;2022-09-24T13:24:48;96711.96;;;19.19;55.43
24302;BME280;12421;49.732;20.078;2022-09-24T13:34:52;96704.09;;;19.08;55.98
24302;BME280;12421;49.732;20.078;2022-09-24T13:44:58;96697.92;;;18.97;57.07
24302;BME280;12421;49.732;20.078;2022-09-24T13:55:23;96673.97;;;18.96;57.43
24302;BME280;12421;49.732;20.078;2022-09-24T14:05:29;96670.95;;;18.85;55.85
24302;BME280;12421;49.732;20.078;2022-09-24T14:15:33;96646.94;;;18.48;57.73
24302;BME280;12421;49.732;20.078;2022-09-24T14:25:37;96647.97;;;18.05;58.49
24302;BME280;12421;49.732;20.078;2022-09-24T14:35:47;96648.50;;;17.53;58.79
24302;BME280;12421;49.732;20.078;2022-09-24T14:45:58;96657.81;;;17.21;59.88
24302;BME280;12421;49.732;20.078;2022-09-24T14:56:26;96646.22;;;17.01;60.49
24302;BME280;12421;49.732;20.078;2022-09-24T15:06:34;96654.75;;;16.99;59.50
24302;BME280;12421;49.732;20.078;2022-09-24T15:16:36;96654.81;;;16.52;59.22
24302;BME280;12421;49.732;20.078;2022-09-24T15:26:42;96651.91;;;15.88;60.12
24302;BME280;12421;49.732;20.078;2022-09-24T15:36:52;96651.91;;;15.24;60.79
24302;BME280;12421;49.732;20.078;2022-09-24T15:46:59;96651.10;;;14.68;61.87
24302;BME280;12421;49.732;20.078;2022-09-24T15:57:02;96647.56;;;14.10;63.73
24302;BME280;12421;49.732;20.078;2022-09-24T16:07:05;96655.38;;;13.51;64.96
24302;BME280;12421;49.732;20.078;2022-09-24T16:17:07;96657.64;;;13.15;65.86
24302;BME280;12421;49.732;20.078;2022-09-24T16:27:11;96664.50;;;12.68;66.68
24302;BME280;12421;49.732;20.078;2022-09-24T16:37:13;96663.09;;;12.14;67.77
24302;BME280;12421;49.732;20.078;2022-09-24T16:47:17;96676.38;;;11.67;68.49
24302;BME280;12421;49.732;20.078;2022-09-24T16:57:21;96682.50;;;11.17;69.49
24302;BME280;12421;49.732;20.078;2022-09-24T17:07:24;96680.64;;;10.70;69.94
24302;BME280;12421;49.732;20.078;2022-09-24T17:17:30;96689.80;;;10.14;70.85
24302;BME280;12421;49.732;20.078;2022-09-24T17:27:33;96687.62;;;9.75;71.80
24302;BME280;12421;49.732;20.078;2022-09-24T17:37:35;96703.22;;;9.50;72.25
24302;BME280;12421;49.732;20.078;2022-09-24T17:47:39;96709.61;;;9.25;72.71
24302;BME280;12421;49.732;20.078;2022-09-24T17:58:02;96723.83;;;9.00;73.44
24302;BME280;12421;49.732;20.078;2022-09-24T18:08:05;96718.84;;;8.67;73.85
24302;BME280;12421;49.732;20.078;2022-09-24T18:18:08;96711.96;;;8.51;74.38
24302;BME280;12421;49.732;20.078;2022-09-24T18:28:11;96704.67;;;8.21;74.35
24302;BME280;12421;49.732;20.078;2022-09-24T18:38:14;96707.83;;;7.98;75.09
24302;BME280;12421;49.732;20.078;2022-09-24T18:48:17;96705.39;;;7.50;75.00
24302;BME280;12421;49.732;20.078;2022-09-24T18:58:19;96705.39;;;7.50;75.00
24302;BME280;12421;49.732;20.078;2022-09-24T19:08:22;96736.38;;;7.51;75.73
24302;BME280;12421;49.732;20.078;2022-09-24T19:18:24;96742.11;;;7.29;75.67
24302;BME280;12421;49.732;20.078;2022-09-24T19:28:27;96741.69;;;7.12;75.85
24302;BME280;12421;49.732;20.078;2022-09-24T19:38:32;96749.97;;;6.88;75.89
24302;BME280;12421;49.732;20.078;2022-09-24T19:48:38;96749.95;;;6.66;76.59
24302;BME280;12421;49.732;20.078;2022-09-24T19:58:45;96749.50;;;6.53;76.57
24302;BME280;12421;49.732;20.078;2022-09-24T20:08:49;96756.03;;;6.48;77.51
24302;BME280;12421;49.732;20.078;2022-09-24T20:18:53;96757.73;;;6.37;77.43
24302;BME280;12421;49.732;20.078;2022-09-24T20:28:58;96759.45;;;6.32;77.30
24302;BME280;12421;49.732;20.078;2022-09-24T20:39:00;96757.72;;;6.30;76.90
24302;BME280;12421;49.732;20.078;2022-09-24T20:49:04;96755.46;;;6.10;77.31
24302;BME280;12421;49.732;20.078;2022-09-24T20:59:07;96748.48;;;6.03;77.78
24302;BME280;12421;49.732;20.078;2022-09-24T21:09:09;96745.40;;;5.96;77.63
24302;BME280;12421;49.732;20.078;2022-09-24T21:19:13;96732.33;;;5.96;78.39
24302;BME280;12421;49.732;20.078;2022-09-24T21:29:17;96740.67;;;6.15;78.62
24302;BME280;12421;49.732;20.078;2022-09-24T21:39:23;96740.25;;;6.23;78.60
24302;BME280;12421;49.732;20.078;2022-09-24T21:49:27;96737.64;;;6.20;78.29
24302;BME280;12421;49.732;20.078;2022-09-24T21:59:30;96737.64;;;6.20;78.29
24302;BME280;12421;49.732;20.078;2022-09-24T22:09:51;96734.96;;;6.03;77.99
24302;BME280;12421;49.732;20.078;2022-09-24T22:19:53;96750.62;;;5.97;78.14
24302;BME280;12421;49.732;20.078;2022-09-24T22:29:55;96736.67;;;5.97;78.08
24302;BME280;12421;49.732;20.078;2022-09-24T22:39:58;96732.34;;;5.99;77.98
24302;BME280;12421;49.732;20.078;2022-09-24T22:50:01;96730.19;;;6.00;78.19
24302;BME280;12421;49.732;20.078;2022-09-24T23:00:05;96728.47;;;6.11;78.60
24302;BME280;12421;49.732;20.078;2022-09-24T23:10:08;96735.91;;;6.22;78.43
24302;BME280;12421;49.732;20.078;2022-09-24T23:20:11;96734.17;;;6.21;77.98
24302;BME280;12421;49.732;20.078;2022-09-24T23:30:14;96730.25;;;6.21;78.47
24302;BME280;12421;49.732;20.078;2022-09-24T23:40:17;96732.83;;;6.18;78.56
24302;BME280;12421;49.732;20.078;2022-09-24T23:50:19;96731.98;;;6.23;78.59
